Time,TemperatureF,DewpointF,PressureIn,WindDirection,WindDirectionDegrees,WindSpeedMPH,WindSpeedGustMPH,Humidity,HourlyPrecipIn,Conditions,Clouds,dailyrainin,SoftwareType,DateUTC
2013-11-23 00:04:00,18.1,3.5,30.55,North,2,7.2,14.9,52,0.00,,SKC,0.00,VWS V14.01,2013-11-23 06:04:00,
2013-11-23 00:10:00,17.6,3.0,30.55,NNW,332,7.2,9.7,52,0.00,,SKC,0.00,VWS V14.01,2013-11-23 06:10:00,
2013-11-23 00:15:00,17.4,2.8,30.55,NW,314,9.7,9.7,52,0.00,,SKC,0.00,VWS V14.01,2013-11-23 06:15:00,
2013-11-23 00:20:00,17.1,2.5,30.55,NW,324,5.6,7.2,52,0.00,,SKC,0.00,VWS V14.01,2013-11-23 06:20:00,
2013-11-23 00:25:00,16.9,2.3,30.55,NW,311,6.4,14.9,52,0.00,,SKC,0.00,VWS V14.01,2013-11-23 06:25:00,
2013-11-23 00:30:00,16.7,2.1,30.55,NNW,328,6.4,10.5,52,0.00,,SKC,0.00,VWS V14.01,2013-11-23 06:30:00,
2013-11-23 00:36:00,16.5,2.0,30.55,NNW,328,10.5,11.3,52,0.00,,SKC,0.00,VWS V14.01,2013-11-23 06:36:00,
2013-11-23 00:41:00,16.2,1.6,30.55,WNW,295,12.9,15.7,52,0.00,,SKC,0.00,VWS V14.01,2013-11-23 06:41:00,
2013-11-23 00:47:00,16.0,1.5,30.55,NW,316,8.9,11.3,52,0.00,,SKC,0.00,VWS V14.01,2013-11-23 06:47:00,
2013-11-23 00:52:00,15.4,1.0,30.55,NW,320,0.0,8.9,52,0.00,,SKC,0.00,VWS V14.01,2013-11-23 06:52:00,
2013-11-23 00:57:00,15.3,0.8,30.55,WSW,251,6.4,10.5,52,0.00,,SKC,0.00,VWS V14.01,2013-11-23 06:57:00,
2013-11-23 01:02:00,14.9,0.9,30.58,WNW,283,7.2,7.2,53,0.00,,SKC,0.00,VWS V14.01,2013-11-23 07:02:00,
2013-11-23 01:07:00,14.9,0.1,30.58,NNW,333,9.7,14.9,51,0.00,,SKC,0.00,VWS V14.01,2013-11-23 07:07:00,
2013-11-23 01:12:00,14.7,-1.0,30.58,NW,307,11.3,18.1,49,0.00,,SKC,0.00,VWS V14.01,2013-11-23 07:12:00,
2013-11-23 01:17:00,14.2,-1.9,30.58,West,264,10.5,14.5,48,0.00,,SKC,0.00,VWS V14.01,2013-11-23 07:17:00,
2013-11-23 01:22:00,13.8,-2.2,30.58,NNW,336,5.6,18.1,48,0.00,,SKC,0.00,VWS V14.01,2013-11-23 07:22:00,
2013-11-23 01:29:00,13.5,-2.6,30.58,NW,306,13.7,26.2,48,0.00,,SKC,0.00,VWS V14.01,2013-11-23 07:29:00,
2013-11-23 01:34:00,13.3,-2.7,30.58,North,0,7.2,11.3,48,0.00,,SKC,0.00,VWS V14.01,2013-11-23 07:34:00,
2013-11-23 01:40:00,12.9,-3.1,30.58,NW,310,13.7,18.1,48,0.00,,SKC,0.00,VWS V14.01,2013-11-23 07:40:00,
2013-11-23 01:45:00,12.7,-3.2,30.61,North,353,8.9,9.7,48,0.00,,SKC,0.00,VWS V14.01,2013-11-23 07:45:00,
2013-11-23 01:50:00,12.4,-3.6,30.61,NW,312,5.6,5.6,48,0.00,,SKC,0.00,VWS V14.01,2013-11-23 07:50:00,
2013-11-23 01:55:00,12.0,-3.9,30.61,NW,322,14.9,14.9,48,0.00,,SKC,0.00,VWS V14.01,2013-11-23 07:55:00,
2013-11-23 02:00:00,11.8,-4.1,30.61,NW,322,7.2,15.7,48,0.00,,SKC,0.00,VWS V14.01,2013-11-23 08:00:00,
2013-11-23 02:05:00,11.5,-4.4,30.61,WNW,284,10.5,10.5,48,0.00,,SKC,0.00,VWS V14.01,2013-11-23 08:05:00,
2013-11-23 02:10:00,11.5,-4.4,30.61,NNW,336,8.9,10.5,48,0.00,,SKC,0.00,VWS V14.01,2013-11-23 08:10:00,
2013-11-23 02:15:00,11.3,-4.6,30.61,North,357,11.3,11.3,48,0.00,,SKC,0.00,VWS V14.01,2013-11-23 08:15:00,
2013-11-23 02:21:00,10.9,-4.9,30.61,NNW,345,4.8,6.4,48,0.00,,SKC,0.00,VWS V14.01,2013-11-23 08:21:00,
2013-11-23 02:26:00,10.8,-5.1,30.61,NW,320,8.9,14.9,48,0.00,,SKC,0.00,VWS V14.01,2013-11-23 08:26:00,
2013-11-23 02:31:00,10.8,-5.1,30.61,NW,317,14.5,15.7,48,0.00,,SKC,0.00,VWS V14.01,2013-11-23 08:31:00,
2013-11-23 02:36:00,10.8,-5.1,30.61,NNW,348,15.7,15.7,48,0.00,,SKC,0.00,VWS V14.01,2013-11-23 08:36:00,
2013-11-23 02:41:00,10.4,-5.4,30.61,North,353,11.3,11.3,48,0.00,,SKC,0.00,VWS V14.01,2013-11-23 08:41:00,
2013-11-23 02:46:00,10.4,-5.4,30.61,North,353,7.2,11.3,48,0.00,,SKC,0.00,VWS V14.01,2013-11-23 08:46:00,
2013-11-23 02:51:00,10.4,-5.4,30.61,NNW,336,11.3,13.7,48,0.00,,SKC,0.00,VWS V14.01,2013-11-23 08:51:00,
2013-11-23 02:57:00,10.2,-5.6,30.61,NW,324,11.3,15.7,48,0.00,,SKC,0.00,VWS V14.01,2013-11-23 08:57:00,
2013-11-23 03:02:00,10.0,-5.7,30.64,NNW,341,9.7,9.7,48,0.00,,SKC,0.00,VWS V14.01,2013-11-23 09:02:00,
2013-11-23 03:07:00,9.7,-6.1,30.64,NNW,334,10.5,15.7,48,0.00,,SKC,0.00,VWS V14.01,2013-11-23 09:07:00,
2013-11-23 03:12:00,9.7,-6.1,30.64,North,349,14.5,14.5,48,0.00,,SKC,0.00,VWS V14.01,2013-11-23 09:12:00,
2013-11-23 03:17:00,9.5,-6.2,30.64,NNW,343,4.8,11.3,48,0.00,,SKC,0.00,VWS V14.01,2013-11-23 09:17:00,
2013-11-23 03:22:00,9.5,-6.2,30.64,NNW,329,7.2,11.3,48,0.00,,SKC,0.00,VWS V14.01,2013-11-23 09:22:00,
2013-11-23 03:27:00,9.3,-6.4,30.64,NNW,333,9.7,13.7,48,0.00,,SKC,0.00,VWS V14.01,2013-11-23 09:27:00,
2013-11-23 03:32:00,9.1,-6.6,30.64,West,274,11.3,15.7,48,0.00,,SKC,0.00,VWS V14.01,2013-11-23 09:32:00,
2013-11-23 03:37:00,9.1,-6.6,30.64,NNW,330,7.2,10.5,48,0.00,,SKC,0.00,VWS V14.01,2013-11-23 09:37:00,
2013-11-23 03:42:00,8.8,-6.9,30.64,NNW,346,8.9,11.3,48,0.00,,SKC,0.00,VWS V14.01,2013-11-23 09:42:00,
2013-11-23 03:48:00,8.8,-6.9,30.64,NNW,335,6.4,14.5,48,0.00,,SKC,0.00,VWS V14.01,2013-11-23 09:48:00,
2013-11-23 03:53:00,8.6,-7.1,30.64,NNW,330,11.3,11.3,48,0.00,,SKC,0.00,VWS V14.01,2013-11-23 09:53:00,
2013-11-23 03:58:00,8.8,-6.9,30.64,NNW,338,10.5,14.5,48,0.00,,SKC,0.00,VWS V14.01,2013-11-23 09:58:00,
2013-11-23 04:03:00,8.6,-7.1,30.64,North,353,7.2,11.3,48,0.00,,SKC,0.00,VWS V14.01,2013-11-23 10:03:00,
2013-11-23 04:08:00,8.4,-7.2,30.64,North,0,9.7,9.7,48,0.00,,SKC,0.00,VWS V14.01,2013-11-23 10:08:00,
2013-11-23 04:13:00,8.4,-7.2,30.64,WNW,298,7.2,9.7,48,0.00,,SKC,0.00,VWS V14.01,2013-11-23 10:13:00,
2013-11-23 04:18:00,8.2,-7.4,30.64,NW,322,6.4,9.7,48,0.00,,SKC,0.00,VWS V14.01,2013-11-23 10:18:00,
2013-11-23 04:23:00,8.4,-7.2,30.64,North,349,7.2,9.7,48,0.00,,SKC,0.00,VWS V14.01,2013-11-23 10:23:00,
2013-11-23 04:28:00,8.1,-7.6,30.64,NW,320,5.6,7.2,48,0.00,,SKC,0.00,VWS V14.01,2013-11-23 10:28:00,
2013-11-23 04:33:00,8.1,-7.6,30.67,West,273,4.8,8.9,48,0.00,,SKC,0.00,VWS V14.01,2013-11-23 10:33:00,
2013-11-23 04:38:00,7.9,-7.7,30.67,NNW,334,6.4,6.4,48,0.00,,SKC,0.00,VWS V14.01,2013-11-23 10:38:00,
2013-11-23 04:44:00,7.9,-7.7,30.67,NNW,337,6.4,10.5,48,0.00,,SKC,0.00,VWS V14.01,2013-11-23 10:44:00,
2013-11-23 04:49:00,7.9,-7.7,30.67,NW,323,4.8,9.7,48,0.00,,SKC,0.00,VWS V14.01,2013-11-23 10:49:00,
2013-11-23 04:54:00,7.9,-7.7,30.67,WNW,294,5.6,13.7,48,0.00,,SKC,0.00,VWS V14.01,2013-11-23 10:54:00,
2013-11-23 04:59:00,7.7,-7.9,30.67,NW,316,4.8,11.3,48,0.00,,SKC,0.00,VWS V14.01,2013-11-23 10:59:00,
2013-11-23 05:04:00,7.5,-8.1,30.67,WNW,300,10.5,10.5,48,0.00,,SKC,0.00,VWS V14.01,2013-11-23 11:04:00,
2013-11-23 05:09:00,7.5,-8.1,30.67,West,278,7.2,10.5,48,0.00,,SKC,0.00,VWS V14.01,2013-11-23 11:09:00,
2013-11-23 05:14:00,7.5,-8.1,30.70,NNW,344,10.5,12.1,48,0.00,,SKC,0.00,VWS V14.01,2013-11-23 11:14:00,
2013-11-23 05:20:00,7.2,-8.4,30.70,NNW,327,4.8,13.7,48,0.00,,SKC,0.00,VWS V14.01,2013-11-23 11:20:00,
2013-11-23 05:25:00,7.2,-8.4,30.70,NNW,339,7.2,10.5,48,0.00,,SKC,0.00,VWS V14.01,2013-11-23 11:25:00,
2013-11-23 05:30:00,7.0,-8.6,30.70,NW,314,8.9,8.9,48,0.00,,SKC,0.00,VWS V14.01,2013-11-23 11:30:00,
2013-11-23 05:35:00,7.0,-8.6,30.70,WNW,296,4.8,6.4,48,0.00,,SKC,0.00,VWS V14.01,2013-11-23 11:35:00,
2013-11-23 05:40:00,6.8,-8.7,30.70,NNW,342,8.9,10.5,48,0.00,,SKC,0.00,VWS V14.01,2013-11-23 11:40:00,
2013-11-23 05:46:00,6.8,-8.7,30.70,WNW,303,5.6,6.4,48,0.00,,SKC,0.00,VWS V14.01,2013-11-23 11:46:00,
2013-11-23 05:51:00,6.6,-8.9,30.70,NNW,333,7.2,11.3,48,0.00,,SKC,0.00,VWS V14.01,2013-11-23 11:51:00,
2013-11-23 05:56:00,6.4,-9.1,30.70,NNW,348,6.4,7.2,48,0.00,,SKC,0.00,VWS V14.01,2013-11-23 11:56:00,
2013-11-23 06:01:00,6.4,-9.1,30.70,NW,324,9.7,9.7,48,0.00,,SKC,0.00,VWS V14.01,2013-11-23 12:01:00,
2013-11-23 06:06:00,6.4,-9.1,30.70,NNW,335,6.4,9.7,48,0.00,,SKC,0.00,VWS V14.01,2013-11-23 12:06:00,
2013-11-23 06:11:00,6.1,-9.4,30.70,NNW,331,11.3,11.3,48,0.00,,SKC,0.00,VWS V14.01,2013-11-23 12:11:00,
2013-11-23 06:16:00,6.3,-9.2,30.70,North,350,11.3,11.3,48,0.00,,SKC,0.00,VWS V14.01,2013-11-23 12:16:00,
2013-11-23 06:21:00,6.3,-9.2,30.70,NW,317,13.7,13.7,48,0.00,,SKC,0.00,VWS V14.01,2013-11-23 12:21:00,
2013-11-23 06:26:00,6.1,-9.4,30.70,WNW,292,8.9,9.7,48,0.00,,SKC,0.00,VWS V14.01,2013-11-23 12:26:00,
2013-11-23 06:31:00,6.1,-9.4,30.73,NW,311,6.4,10.5,48,0.00,,SKC,0.00,VWS V14.01,2013-11-23 12:31:00,
2013-11-23 06:36:00,6.1,-9.4,30.73,NNW,335,4.0,10.5,48,0.00,,SKC,0.00,VWS V14.01,2013-11-23 12:36:00,
2013-11-23 06:41:00,5.9,-9.6,30.73,NNW,345,5.6,6.4,48,0.00,,SKC,0.00,VWS V14.01,2013-11-23 12:41:00,
2013-11-23 06:47:00,6.1,-9.4,30.73,NNW,338,9.7,13.7,48,0.00,,SKC,0.00,VWS V14.01,2013-11-23 12:47:00,
2013-11-23 06:52:00,6.1,-9.4,30.73,North,0,5.6,10.5,48,0.00,,SKC,0.00,VWS V14.01,2013-11-23 12:52:00,
2013-11-23 06:57:00,6.1,-9.4,30.73,West,278,14.9,14.9,48,0.00,,SKC,0.00,VWS V14.01,2013-11-23 12:57:00,
2013-11-23 07:02:00,6.3,-9.2,30.73,NNW,343,7.2,9.7,48,0.00,,SKC,0.00,VWS V14.01,2013-11-23 13:02:00,
2013-11-23 07:08:00,6.1,-9.4,30.73,NNW,331,9.7,9.7,48,0.00,,SKC,0.00,VWS V14.01,2013-11-23 13:08:00,
2013-11-23 07:13:00,6.1,-9.4,30.73,NW,309,5.6,9.7,48,0.00,,SKC,0.00,VWS V14.01,2013-11-23 13:13:00,
2013-11-23 07:18:00,6.1,-9.4,30.73,NNW,329,5.6,9.7,48,0.00,,SKC,0.00,VWS V14.01,2013-11-23 13:18:00,
2013-11-23 07:23:00,5.9,-9.6,30.73,NW,318,9.7,9.7,48,0.00,,SKC,0.00,VWS V14.01,2013-11-23 13:23:00,
2013-11-23 07:28:00,5.9,-9.6,30.73,NNW,341,0.0,8.9,48,0.00,,SKC,0.00,VWS V14.01,2013-11-23 13:28:00,
2013-11-23 07:33:00,5.9,-9.6,30.76,NNW,339,4.0,9.7,48,0.00,,SKC,0.00,VWS V14.01,2013-11-23 13:33:00,
2013-11-23 07:38:00,6.1,-9.4,30.76,NW,325,6.4,14.5,48,0.00,,SKC,0.00,VWS V14.01,2013-11-23 13:38:00,
2013-11-23 07:43:00,6.1,-9.4,30.76,WNW,299,10.5,14.9,48,0.00,,SKC,0.00,VWS V14.01,2013-11-23 13:43:00,
2013-11-23 07:48:00,6.1,-9.4,30.76,NNW,337,7.2,9.7,48,0.00,,SKC,0.00,VWS V14.01,2013-11-23 13:48:00,
2013-11-23 07:54:00,6.3,-9.2,30.76,NNW,338,9.7,9.7,48,0.00,,SKC,0.00,VWS V14.01,2013-11-23 13:54:00,
2013-11-23 07:59:00,6.3,-9.2,30.76,NNW,335,8.9,11.3,48,0.00,,SKC,0.00,VWS V14.01,2013-11-23 13:59:00,
2013-11-23 08:04:00,6.4,-9.1,30.76,NW,319,12.1,12.1,48,0.00,,SKC,0.00,VWS V14.01,2013-11-23 14:04:00,
2013-11-23 08:09:00,6.6,-8.9,30.76,WNW,282,10.5,12.1,48,0.00,,SKC,0.00,VWS V14.01,2013-11-23 14:09:00,
2013-11-23 08:14:00,6.8,-8.7,30.76,WNW,289,6.4,11.3,48,0.00,,SKC,0.00,VWS V14.01,2013-11-23 14:14:00,
2013-11-23 08:19:00,7.0,-8.6,30.76,North,357,13.7,18.1,48,0.00,,SKC,0.00,VWS V14.01,2013-11-23 14:19:00,
2013-11-23 08:24:00,7.2,-8.4,30.76,NW,311,4.8,7.2,48,0.00,,SKC,0.00,VWS V14.01,2013-11-23 14:24:00,
2013-11-23 08:29:00,7.3,-8.2,30.79,WNW,303,4.0,14.5,48,0.00,,SKC,0.00,VWS V14.01,2013-11-23 14:29:00,
2013-11-23 08:34:00,7.7,-7.9,30.79,NNW,333,10.5,14.5,48,0.00,,SKC,0.00,VWS V14.01,2013-11-23 14:34:00,
2013-11-23 08:40:00,7.9,-7.7,30.79,WNW,303,4.0,14.5,48,0.00,,SKC,0.00,VWS V14.01,2013-11-23 14:40:00,
2013-11-23 08:45:00,7.9,-7.7,30.79,WNW,293,5.6,13.7,48,0.00,,SKC,0.00,VWS V14.01,2013-11-23 14:45:00,
2013-11-23 08:50:00,8.1,-7.6,30.79,West,272,10.5,11.3,48,0.00,,SKC,0.00,VWS V14.01,2013-11-23 14:50:00,
2013-11-23 08:55:00,8.4,-7.2,30.79,WNW,301,8.9,11.3,48,0.00,,SKC,0.00,VWS V14.01,2013-11-23 14:55:00,
2013-11-23 09:00:00,8.6,-7.1,30.79,NNW,341,14.9,14.9,48,0.00,,SKC,0.00,VWS V14.01,2013-11-23 15:00:00,
2013-11-23 09:06:00,8.6,-7.1,30.79,North,350,9.7,10.5,48,0.00,,SKC,0.00,VWS V14.01,2013-11-23 15:06:00,
2013-11-23 09:11:00,9.0,-6.7,30.79,North,10,9.7,9.7,48,0.00,,SKC,0.00,VWS V14.01,2013-11-23 15:11:00,
2013-11-23 09:16:00,9.3,-6.4,30.79,NNW,346,6.4,6.4,48,0.00,,SKC,0.00,VWS V14.01,2013-11-23 15:16:00,
2013-11-23 09:21:00,9.1,-6.6,30.79,NNW,342,10.5,15.7,48,0.00,,SKC,0.00,VWS V14.01,2013-11-23 15:21:00,
2013-11-23 09:26:00,9.3,-6.4,30.79,NW,305,7.2,9.7,48,0.00,,SKC,0.00,VWS V14.01,2013-11-23 15:26:00,
2013-11-23 09:31:00,9.5,-6.2,30.79,NNW,345,8.9,14.5,48,0.00,,SKC,0.00,VWS V14.01,2013-11-23 15:31:00,
2013-11-23 09:36:00,9.3,-6.4,30.79,North,0,14.5,14.9,48,0.00,,SKC,0.00,VWS V14.01,2013-11-23 15:36:00,
2013-11-23 09:41:00,9.7,-6.1,30.79,NNW,348,10.5,13.7,48,0.00,,SKC,0.00,VWS V14.01,2013-11-23 15:41:00,
2013-11-23 09:47:00,9.7,-6.1,30.79,North,349,6.4,11.3,48,0.00,,SKC,0.00,VWS V14.01,2013-11-23 15:47:00,
2013-11-23 09:52:00,9.7,-6.1,30.79,North,357,12.1,18.1,48,0.00,,SKC,0.00,VWS V14.01,2013-11-23 15:52:00,
2013-11-23 09:57:00,9.9,-5.9,30.79,NNW,339,5.6,11.3,48,0.00,,SKC,0.00,VWS V14.01,2013-11-23 15:57:00,
2013-11-23 10:02:00,10.0,-5.7,30.79,NNW,345,11.3,13.7,48,0.00,,SKC,0.00,VWS V14.01,2013-11-23 16:02:00,
2013-11-23 10:07:00,10.2,-5.6,30.79,NNW,332,11.3,15.7,48,0.00,,SKC,0.00,VWS V14.01,2013-11-23 16:07:00,
2013-11-23 10:12:00,10.4,-5.4,30.79,NNW,339,14.9,14.9,48,0.00,,SKC,0.00,VWS V14.01,2013-11-23 16:12:00,
2013-11-23 10:18:00,10.4,-5.4,30.79,North,357,13.7,13.7,48,0.00,,SKC,0.00,VWS V14.01,2013-11-23 16:18:00,
2013-11-23 10:23:00,10.6,-5.2,30.79,NNW,340,18.9,18.9,48,0.00,,SKC,0.00,VWS V14.01,2013-11-23 16:23:00,
2013-11-23 10:28:00,10.9,-4.9,30.79,NNW,344,13.7,13.7,48,0.00,,SKC,0.00,VWS V14.01,2013-11-23 16:28:00,
2013-11-23 10:33:00,11.1,-4.7,30.79,NNW,343,11.3,16.5,48,0.00,,SKC,0.00,VWS V14.01,2013-11-23 16:33:00,
2013-11-23 10:38:00,11.3,-4.6,30.79,NNW,339,8.9,10.5,48,0.00,,SKC,0.00,VWS V14.01,2013-11-23 16:38:00,
2013-11-23 10:43:00,11.7,-4.2,30.79,NNW,341,14.9,14.9,48,0.00,,SKC,0.00,VWS V14.01,2013-11-23 16:43:00,
2013-11-23 10:48:00,11.7,-4.2,30.79,NNW,346,9.7,14.5,48,0.00,,SKC,0.00,VWS V14.01,2013-11-23 16:48:00,
2013-11-23 10:53:00,11.8,-4.1,30.79,NNE,28,8.9,11.3,48,0.00,,SKC,0.00,VWS V14.01,2013-11-23 16:53:00,
2013-11-23 10:59:00,11.8,-4.1,30.79,NW,320,14.5,14.5,48,0.00,,SKC,0.00,VWS V14.01,2013-11-23 16:59:00,
2013-11-23 11:04:00,11.7,-4.2,30.79,NNW,339,11.3,11.3,48,0.00,,SKC,0.00,VWS V14.01,2013-11-23 17:04:00,
2013-11-23 11:09:00,12.0,-3.9,30.79,North,350,7.2,11.3,48,0.00,,SKC,0.00,VWS V14.01,2013-11-23 17:09:00,
2013-11-23 11:14:00,12.2,-3.7,30.79,North,353,5.6,5.6,48,0.00,,SKC,0.00,VWS V14.01,2013-11-23 17:14:00,
2013-11-23 11:19:00,12.2,-3.7,30.79,North,353,13.7,13.7,48,0.00,,SKC,0.00,VWS V14.01,2013-11-23 17:19:00,
2013-11-23 11:24:00,12.6,-3.4,30.79,NNW,341,7.2,8.9,48,0.00,,SKC,0.00,VWS V14.01,2013-11-23 17:24:00,
2013-11-23 11:29:00,12.2,-3.7,30.79,NNW,344,13.7,13.7,48,0.00,,SKC,0.00,VWS V14.01,2013-11-23 17:29:00,
2013-11-23 11:35:00,12.7,-3.2,30.79,WNW,284,4.8,10.5,48,0.00,,SKC,0.00,VWS V14.01,2013-11-23 17:35:00,
2013-11-23 11:40:00,12.7,-3.2,30.79,North,353,9.7,13.7,48,0.00,,SKC,0.00,VWS V14.01,2013-11-23 17:40:00,
2013-11-23 11:45:00,12.9,-3.1,30.79,NW,309,7.2,8.9,48,0.00,,SKC,0.00,VWS V14.01,2013-11-23 17:45:00,
2013-11-23 11:50:00,13.1,-2.9,30.79,NNE,16,19.7,19.7,48,0.00,,SKC,0.00,VWS V14.01,2013-11-23 17:50:00,
2013-11-23 11:55:00,13.3,-2.7,30.79,NNW,343,7.2,15.7,48,0.00,,SKC,0.00,VWS V14.01,2013-11-23 17:55:00,
2013-11-23 12:00:00,13.5,-2.6,30.79,NNW,339,10.5,10.5,48,0.00,,SKC,0.00,VWS V14.01,2013-11-23 18:00:00,
2013-11-23 12:05:00,13.1,-2.9,30.79,North,353,11.3,14.9,48,0.00,,SKC,0.00,VWS V14.01,2013-11-23 18:05:00,
2013-11-23 12:11:00,13.5,-2.6,30.79,NNW,333,13.7,15.7,48,0.00,,SKC,0.00,VWS V14.01,2013-11-23 18:11:00,
2013-11-23 12:16:00,14.5,-2.9,30.79,NNW,343,14.9,14.9,45,0.00,,SKC,0.00,VWS V14.01,2013-11-23 18:16:00,
2013-11-23 12:21:00,13.6,-3.8,30.79,WNW,297,5.6,8.9,45,0.00,,SKC,0.00,VWS V14.01,2013-11-23 18:21:00,
2013-11-23 12:26:00,14.2,-3.2,30.79,WNW,301,10.5,11.3,45,0.00,,SKC,0.00,VWS V14.01,2013-11-23 18:26:00,
2013-11-23 12:31:00,14.7,-2.8,30.79,NW,321,7.2,11.3,45,0.00,,SKC,0.00,VWS V14.01,2013-11-23 18:31:00,
2013-11-23 12:36:00,14.7,-2.8,30.79,NE,38,12.9,13.7,45,0.00,,SKC,0.00,VWS V14.01,2013-11-23 18:36:00,
2013-11-23 12:42:00,14.2,-3.2,30.79,NNW,337,7.2,8.9,45,0.00,,SKC,0.00,VWS V14.01,2013-11-23 18:42:00,
2013-11-23 12:47:00,13.8,-3.6,30.79,WNW,296,10.5,11.3,45,0.00,,SKC,0.00,VWS V14.01,2013-11-23 18:47:00,
2013-11-23 12:52:00,14.5,-2.9,30.79,West,265,7.2,13.7,45,0.00,,SKC,0.00,VWS V14.01,2013-11-23 18:52:00,
2013-11-23 12:57:00,14.4,-3.1,30.79,West,280,11.3,11.3,45,0.00,,SKC,0.00,VWS V14.01,2013-11-23 18:57:00,
2013-11-23 13:02:00,14.5,-3.4,30.79,West,270,9.7,15.7,44,0.00,,SKC,0.00,VWS V14.01,2013-11-23 19:02:00,
2013-11-23 13:07:00,14.9,-3.1,30.79,WNW,283,6.4,10.5,44,0.00,,SKC,0.00,VWS V14.01,2013-11-23 19:07:00,
2013-11-23 13:12:00,15.3,-2.7,30.79,North,353,7.2,10.5,44,0.00,,SKC,0.00,VWS V14.01,2013-11-23 19:12:00,
2013-11-23 13:18:00,15.1,-2.9,30.79,West,277,4.8,7.2,44,0.00,,SKC,0.00,VWS V14.01,2013-11-23 19:18:00,
2013-11-23 13:23:00,15.3,-2.7,30.79,North,349,9.7,14.9,44,0.00,,SKC,0.00,VWS V14.01,2013-11-23 19:23:00,
2013-11-23 13:28:00,14.7,-3.2,30.79,North,353,14.5,14.5,44,0.00,,SKC,0.00,VWS V14.01,2013-11-23 19:28:00,
2013-11-23 13:33:00,15.1,-2.4,30.76,NW,322,9.7,9.7,45,0.00,,SKC,0.00,VWS V14.01,2013-11-23 19:33:00,
2013-11-23 13:38:00,14.7,-3.2,30.76,North,2,11.3,11.3,44,0.00,,SKC,0.00,VWS V14.01,2013-11-23 19:38:00,
2013-11-23 13:43:00,15.3,-2.3,30.79,NNW,338,8.9,10.5,45,0.00,,SKC,0.00,VWS V14.01,2013-11-23 19:43:00,
2013-11-23 13:48:00,15.3,-2.3,30.79,NNW,344,6.4,9.7,45,0.00,,SKC,0.00,VWS V14.01,2013-11-23 19:48:00,
2013-11-23 13:54:00,15.3,-2.3,30.79,NNW,334,11.3,16.5,45,0.00,,SKC,0.00,VWS V14.01,2013-11-23 19:54:00,
2013-11-23 13:59:00,14.9,-3.1,30.79,NW,313,11.3,14.5,44,0.00,,SKC,0.00,VWS V14.01,2013-11-23 19:59:00,
2013-11-23 14:04:00,14.9,-3.1,30.79,NW,319,12.1,12.1,44,0.00,,SKC,0.00,VWS V14.01,2013-11-23 20:04:00,
2013-11-23 14:09:00,15.1,-2.9,30.79,NW,305,9.7,14.5,44,0.00,,SKC,0.00,VWS V14.01,2013-11-23 20:09:00,
2013-11-23 14:14:00,15.1,-2.9,30.79,NW,321,13.7,13.7,44,0.00,,SKC,0.00,VWS V14.01,2013-11-23 20:14:00,
2013-11-23 14:19:00,15.1,-2.9,30.79,West,278,8.1,9.7,44,0.00,,SKC,0.00,VWS V14.01,2013-11-23 20:19:00,
2013-11-23 14:24:00,15.6,-1.9,30.79,NE,34,14.5,14.5,45,0.00,,SKC,0.00,VWS V14.01,2013-11-23 20:24:00,
2013-11-23 14:29:00,15.3,-2.7,30.76,North,9,10.5,15.7,44,0.00,,SKC,0.00,VWS V14.01,2013-11-23 20:29:00,
2013-11-23 14:35:00,15.1,-2.9,30.76,NNW,329,10.5,15.7,44,0.00,,SKC,0.00,VWS V14.01,2013-11-23 20:35:00,
2013-11-23 14:40:00,15.1,-2.9,30.76,NNW,345,8.9,13.7,44,0.00,,SKC,0.00,VWS V14.01,2013-11-23 20:40:00,
2013-11-23 14:45:00,15.3,-2.7,30.76,NNW,335,10.5,14.5,44,0.00,,SKC,0.00,VWS V14.01,2013-11-23 20:45:00,
2013-11-23 14:50:00,15.4,-2.6,30.76,NNW,345,11.3,14.5,44,0.00,,SKC,0.00,VWS V14.01,2013-11-23 20:50:00,
2013-11-23 14:55:00,15.4,-2.6,30.76,NNW,342,13.7,13.7,44,0.00,,SKC,0.00,VWS V14.01,2013-11-23 20:55:00,
2013-11-23 15:00:00,15.4,-2.6,30.76,North,357,7.2,10.5,44,0.00,,SKC,0.00,VWS V14.01,2013-11-23 21:00:00,
2013-11-23 15:05:00,15.4,-2.6,30.76,North,357,6.4,11.3,44,0.00,,SKC,0.00,VWS V14.01,2013-11-23 21:05:00,
2013-11-23 15:10:00,15.3,-2.7,30.76,WNW,290,5.6,10.5,44,0.00,,SKC,0.00,VWS V14.01,2013-11-23 21:10:00,
2013-11-23 15:15:00,15.3,-2.7,30.76,NNW,327,0.0,9.7,44,0.00,,SKC,0.00,VWS V14.01,2013-11-23 21:15:00,
2013-11-23 15:21:00,15.4,-2.6,30.76,NNW,345,10.5,11.3,44,0.00,,SKC,0.00,VWS V14.01,2013-11-23 21:21:00,
2013-11-23 15:26:00,15.6,-2.4,30.76,North,353,11.3,14.5,44,0.00,,SKC,0.00,VWS V14.01,2013-11-23 21:26:00,
2013-11-23 15:31:00,15.4,-2.6,30.76,NNW,337,11.3,11.3,44,0.00,,SKC,0.00,VWS V14.01,2013-11-23 21:31:00,
2013-11-23 15:36:00,15.4,-2.6,30.76,NW,317,9.7,9.7,44,0.00,,SKC,0.00,VWS V14.01,2013-11-23 21:36:00,
2013-11-23 15:41:00,15.4,-2.6,30.76,NNW,336,7.2,12.1,44,0.00,,SKC,0.00,VWS V14.01,2013-11-23 21:41:00,
2013-11-23 15:46:00,15.4,-2.6,30.76,NNW,335,8.9,10.5,44,0.00,,SKC,0.00,VWS V14.01,2013-11-23 21:46:00,
2013-11-23 15:51:00,15.4,-2.6,30.76,NW,317,10.5,10.5,44,0.00,,SKC,0.00,VWS V14.01,2013-11-23 21:51:00,
2013-11-23 15:56:00,15.4,-2.6,30.76,West,277,8.9,11.3,44,0.00,,SKC,0.00,VWS V14.01,2013-11-23 21:56:00,
2013-11-23 16:01:00,15.3,-2.7,30.79,NNW,332,7.2,14.9,44,0.00,,SKC,0.00,VWS V14.01,2013-11-23 22:01:00,
2013-11-23 16:06:00,15.1,-2.9,30.79,West,281,6.4,6.4,44,0.00,,SKC,0.00,VWS V14.01,2013-11-23 22:06:00,
2013-11-23 16:12:00,14.5,-3.4,30.79,NW,324,5.6,8.9,44,0.00,,SKC,0.00,VWS V14.01,2013-11-23 22:12:00,
2013-11-23 16:17:00,14.4,-3.6,30.76,NW,315,5.6,6.4,44,0.00,,SKC,0.00,VWS V14.01,2013-11-23 22:17:00,
2013-11-23 16:22:00,13.8,-4.1,30.76,NW,324,5.6,11.3,44,0.00,,SKC,0.00,VWS V14.01,2013-11-23 22:22:00,
2013-11-23 16:27:00,13.6,-4.2,30.76,NW,311,0.0,6.4,44,0.00,,SKC,0.00,VWS V14.01,2013-11-23 22:27:00,
2013-11-23 16:32:00,13.3,-4.6,30.79,WNW,290,8.9,10.5,44,0.00,,SKC,0.00,VWS V14.01,2013-11-23 22:32:00,
2013-11-23 16:37:00,12.9,-4.9,30.79,WNW,294,6.4,8.9,44,0.00,,SKC,0.00,VWS V14.01,2013-11-23 22:37:00,
2013-11-23 16:42:00,12.7,-5.0,30.79,NNW,346,0.0,5.6,44,0.00,,SKC,0.00,VWS V14.01,2013-11-23 22:42:00,
2013-11-23 16:47:00,12.4,-5.4,30.76,NW,325,0.0,0.0,44,0.00,,SKC,0.00,VWS V14.01,2013-11-23 22:47:00,
2013-11-23 16:52:00,12.2,-5.5,30.76,NW,322,4.8,4.8,44,0.00,,SKC,0.00,VWS V14.01,2013-11-23 22:52:00,
2013-11-23 16:57:00,12.2,-5.5,30.76,WNW,286,7.2,7.2,44,0.00,,SKC,0.00,VWS V14.01,2013-11-23 22:57:00,
2013-11-23 17:03:00,12.2,-5.5,30.76,West,275,4.8,4.8,44,0.00,,SKC,0.00,VWS V14.01,2013-11-23 23:03:00,
2013-11-23 17:08:00,11.8,-5.9,30.76,WSW,257,0.0,0.0,44,0.00,,SKC,0.00,VWS V14.01,2013-11-23 23:08:00,
2013-11-23 17:09:00,11.8,-5.9,30.76,WSW,257,5.6,5.6,44,0.00,,SKC,0.00,VWS V14.01,2013-11-23 23:09:00,
2013-11-23 17:14:00,11.7,-6.0,30.79,West,259,4.0,4.0,44,0.00,,SKC,0.00,VWS V14.01,2013-11-23 23:14:00,
2013-11-23 17:19:00,11.1,-6.5,30.79,NW,304,0.0,7.2,44,0.00,,SKC,0.00,VWS V14.01,2013-11-23 23:19:00,
2013-11-23 17:24:00,11.3,-6.4,30.79,West,272,5.6,5.6,44,0.00,,SKC,0.00,VWS V14.01,2013-11-23 23:24:00,
2013-11-23 17:29:00,11.3,-6.4,30.79,WNW,303,4.8,7.2,44,0.00,,SKC,0.00,VWS V14.01,2013-11-23 23:29:00,
2013-11-23 17:34:00,11.3,-6.4,30.79,West,279,7.2,9.7,44,0.00,,SKC,0.00,VWS V14.01,2013-11-23 23:34:00,
2013-11-23 17:39:00,11.3,-6.4,30.79,NW,307,4.8,6.4,44,0.00,,SKC,0.00,VWS V14.01,2013-11-23 23:39:00,
2013-11-23 17:44:00,11.1,-6.5,30.79,WNW,288,5.6,6.4,44,0.00,,SKC,0.00,VWS V14.01,2013-11-23 23:44:00,
2013-11-23 17:49:00,11.3,-6.4,30.79,NNW,335,6.4,7.2,44,0.00,,SKC,0.00,VWS V14.01,2013-11-23 23:49:00,
2013-11-23 17:55:00,10.9,-6.7,30.79,NW,321,4.0,5.6,44,0.00,,SKC,0.00,VWS V14.01,2013-11-23 23:55:00,
2013-11-23 18:00:00,10.8,-6.8,30.76,NW,307,0.0,4.8,44,0.00,,SKC,0.00,VWS V14.01,2013-11-24 00:00:00,
2013-11-23 18:05:00,10.4,-7.2,30.76,WNW,288,6.4,7.2,44,0.00,,SKC,0.00,VWS V14.01,2013-11-24 00:05:00,
2013-11-23 18:10:00,10.0,-7.5,30.76,WNW,292,4.8,4.8,44,0.00,,SKC,0.00,VWS V14.01,2013-11-24 00:10:00,
2013-11-23 18:15:00,10.2,-7.3,30.76,NW,324,6.4,6.4,44,0.00,,SKC,0.00,VWS V14.01,2013-11-24 00:15:00,
2013-11-23 18:20:00,10.0,-7.5,30.76,NW,324,0.0,0.0,44,0.00,,SKC,0.00,VWS V14.01,2013-11-24 00:20:00,
2013-11-23 18:25:00,9.9,-7.7,30.76,NNW,327,0.0,0.0,44,0.00,,SKC,0.00,VWS V14.01,2013-11-24 00:25:00,
2013-11-23 18:30:00,9.7,-7.8,30.76,NNW,327,0.0,4.0,44,0.00,,SKC,0.00,VWS V14.01,2013-11-24 00:30:00,
2013-11-23 18:36:00,9.7,-7.8,30.76,WSW,250,0.0,0.0,44,0.00,,SKC,0.00,VWS V14.01,2013-11-24 00:36:00,
2013-11-23 18:41:00,9.5,-8.0,30.76,WSW,251,4.8,4.8,44,0.00,,SKC,0.00,VWS V14.01,2013-11-24 00:41:00,
2013-11-23 18:46:00,9.1,-8.3,30.76,WSW,254,0.0,4.8,44,0.00,,SKC,0.00,VWS V14.01,2013-11-24 00:46:00,
2013-11-23 18:52:00,9.3,-8.2,30.76,WNW,298,4.8,4.8,44,0.00,,SKC,0.00,VWS V14.01,2013-11-24 00:52:00,
2013-11-23 18:57:00,9.3,-8.2,30.76,NW,324,0.0,4.8,44,0.00,,SKC,0.00,VWS V14.01,2013-11-24 00:57:00,
2013-11-23 19:02:00,9.1,-8.3,30.73,NW,324,0.0,0.0,44,0.00,,SKC,0.00,VWS V14.01,2013-11-24 01:02:00,
2013-11-23 19:07:00,9.3,-8.2,30.73,NW,324,0.0,0.0,44,0.00,,SKC,0.00,VWS V14.01,2013-11-24 01:07:00,
2013-11-23 19:12:00,9.3,-8.2,30.73,SW,219,4.0,5.6,44,0.00,,SKC,0.00,VWS V14.01,2013-11-24 01:12:00,
2013-11-23 19:17:00,9.1,-8.3,30.76,SW,233,0.0,0.0,44,0.00,,SKC,0.00,VWS V14.01,2013-11-24 01:17:00,
2013-11-23 19:20:00,8.6,-8.8,30.73,NW,320,0.0,0.0,44,0.00,,SKC,0.00,VWS V14.01,2013-11-24 01:20:00,
2013-11-23 19:22:00,8.8,-8.7,30.76,North,353,0.0,5.6,44,0.00,,SKC,0.00,VWS V14.01,2013-11-24 01:22:00,
2013-11-23 19:25:00,8.8,-8.7,30.73,SW,231,4.0,6.4,44,0.00,,SKC,0.00,VWS V14.01,2013-11-24 01:25:00,
2013-11-23 19:26:00,8.6,-8.8,30.73,SW,232,5.6,5.6,44,0.00,,SKC,0.00,VWS V14.01,2013-11-24 01:26:00,
2013-11-23 19:27:00,8.8,-8.7,30.76,NW,320,0.0,4.8,44,0.00,,SKC,0.00,VWS V14.01,2013-11-24 01:27:00,
2013-11-23 19:30:00,8.8,-8.7,30.73,SW,231,0.0,0.0,44,0.00,,SKC,0.00,VWS V14.01,2013-11-24 01:30:00,
2013-11-23 19:32:00,8.8,-8.7,30.73,WNW,296,5.6,5.6,44,0.00,,SKC,0.00,VWS V14.01,2013-11-24 01:32:00,
2013-11-23 19:33:00,8.6,-8.8,30.73,SW,231,0.0,0.0,44,0.00,,SKC,0.00,VWS V14.01,2013-11-24 01:33:00,
2013-11-23 19:34:00,8.6,-8.8,30.76,SW,231,0.0,0.0,44,0.00,,SKC,0.00,VWS V14.01,2013-11-24 01:34:00,
2013-11-23 19:35:00,8.4,-9.0,30.76,SW,232,0.0,0.0,44,0.00,,SKC,0.00,VWS V14.01,2013-11-24 01:35:00,
2013-11-23 19:36:00,8.4,-9.0,30.76,SW,232,0.0,0.0,44,0.00,,SKC,0.00,VWS V14.01,2013-11-24 01:36:00,
2013-11-23 19:38:00,8.8,-8.7,30.73,SW,231,0.0,5.6,44,0.00,,SKC,0.00,VWS V14.01,2013-11-24 01:38:00,
2013-11-23 19:40:00,8.2,-9.2,30.76,West,264,6.4,7.2,44,0.00,,SKC,0.00,VWS V14.01,2013-11-24 01:40:00,
2013-11-23 19:41:00,8.2,-9.2,30.76,West,264,0.0,6.4,44,0.00,,SKC,0.00,VWS V14.01,2013-11-24 01:41:00,
2013-11-23 19:43:00,8.6,-8.8,30.76,SW,231,0.0,0.0,44,0.00,,SKC,0.00,VWS V14.01,2013-11-24 01:43:00,
2013-11-23 19:46:00,8.2,-9.2,30.76,West,261,4.0,5.6,44,0.00,,SKC,0.00,VWS V14.01,2013-11-24 01:46:00,
2013-11-23 19:47:00,8.1,-9.3,30.76,West,261,0.0,4.0,44,0.00,,SKC,0.00,VWS V14.01,2013-11-24 01:47:00,
2013-11-23 19:48:00,8.2,-9.2,30.76,SW,232,0.0,0.0,44,0.00,,SKC,0.00,VWS V14.01,2013-11-24 01:48:00,
2013-11-23 19:50:00,8.2,-9.2,30.76,West,260,0.0,6.4,44,0.00,,SKC,0.00,VWS V14.01,2013-11-24 01:50:00,
2013-11-23 19:53:00,8.1,-9.3,30.76,West,264,0.0,4.0,44,0.00,,SKC,0.00,VWS V14.01,2013-11-24 01:53:00,
2013-11-23 19:55:00,8.1,-9.3,30.76,WSW,242,4.8,7.2,44,0.00,,SKC,0.00,VWS V14.01,2013-11-24 01:55:00,
2013-11-23 19:58:00,8.1,-9.3,30.76,West,261,0.0,0.0,44,0.00,,SKC,0.00,VWS V14.01,2013-11-24 01:58:00,
2013-11-23 20:00:00,7.9,-9.5,30.76,West,260,0.0,0.0,44,0.00,,SKC,0.00,VWS V14.01,2013-11-24 02:00:00,
2013-11-23 20:01:00,7.9,-9.5,30.76,West,260,0.0,0.0,44,0.00,,SKC,0.00,VWS V14.01,2013-11-24 02:01:00,
2013-11-23 20:03:00,8.1,-9.3,30.76,West,260,0.0,0.0,44,0.00,,SKC,0.00,VWS V14.01,2013-11-24 02:03:00,
2013-11-23 20:05:00,7.9,-9.5,30.76,West,260,0.0,0.0,44,0.00,,SKC,0.00,VWS V14.01,2013-11-24 02:05:00,
2013-11-23 20:07:00,8.1,-9.3,30.76,West,259,6.4,8.9,44,0.00,,SKC,0.00,VWS V14.01,2013-11-24 02:07:00,
2013-11-23 20:08:00,8.1,-9.3,30.76,West,263,4.0,4.8,44,0.00,,SKC,0.00,VWS V14.01,2013-11-24 02:08:00,
2013-11-23 20:09:00,7.9,-9.5,30.76,West,260,0.0,0.0,44,0.00,,SKC,0.00,VWS V14.01,2013-11-24 02:09:00,
2013-11-23 20:11:00,8.1,-9.3,30.76,West,263,0.0,4.8,44,0.00,,SKC,0.00,VWS V14.01,2013-11-24 02:11:00,
2013-11-23 20:13:00,7.9,-9.5,30.76,West,263,5.6,5.6,44,0.00,,SKC,0.00,VWS V14.01,2013-11-24 02:13:00,
2013-11-23 20:14:00,7.9,-9.5,30.76,West,260,0.0,0.0,44,0.00,,SKC,0.00,VWS V14.01,2013-11-24 02:14:00,
2013-11-23 20:15:00,7.7,-9.7,30.76,West,263,0.0,4.0,44,0.00,,SKC,0.00,VWS V14.01,2013-11-24 02:15:00,
2013-11-23 20:16:00,7.7,-9.7,30.76,West,263,0.0,0.0,44,0.00,,SKC,0.00,VWS V14.01,2013-11-24 02:16:00,
2013-11-23 20:17:00,7.7,-9.7,30.76,West,263,0.0,0.0,44,0.00,,SKC,0.00,VWS V14.01,2013-11-24 02:17:00,
2013-11-23 20:18:00,7.7,-9.7,30.73,West,263,0.0,0.0,44,0.00,,SKC,0.00,VWS V14.01,2013-11-24 02:18:00,
2013-11-23 20:20:00,7.5,-9.8,30.73,West,263,0.0,0.0,44,0.00,,SKC,0.00,VWS V14.01,2013-11-24 02:20:00,
2013-11-23 20:21:00,8.1,-9.3,30.76,West,263,4.8,7.2,44,0.00,,SKC,0.00,VWS V14.01,2013-11-24 02:21:00,
2013-11-23 20:22:00,7.2,-10.2,30.73,West,263,0.0,0.0,44,0.00,,SKC,0.00,VWS V14.01,2013-11-24 02:22:00,
2013-11-23 20:23:00,7.2,-10.2,30.73,West,263,0.0,0.0,44,0.00,,SKC,0.00,VWS V14.01,2013-11-24 02:23:00,
2013-11-23 20:24:00,7.2,-10.2,30.73,West,263,0.0,0.0,44,0.00,,SKC,0.00,VWS V14.01,2013-11-24 02:24:00,
2013-11-23 20:26:00,7.2,-10.2,30.73,West,263,0.0,0.0,44,0.00,,SKC,0.00,VWS V14.01,2013-11-24 02:26:00,
2013-11-23 20:27:00,7.2,-10.2,30.73,West,263,0.0,0.0,44,0.00,,SKC,0.00,VWS V14.01,2013-11-24 02:27:00,
2013-11-23 20:28:00,7.2,-10.2,30.73,West,263,0.0,0.0,44,0.00,,SKC,0.00,VWS V14.01,2013-11-24 02:28:00,
2013-11-23 20:29:00,7.7,-9.7,30.73,West,263,0.0,0.0,44,0.00,,SKC,0.00,VWS V14.01,2013-11-24 02:29:00,
2013-11-23 20:30:00,7.2,-10.2,30.73,West,263,0.0,0.0,44,0.00,,SKC,0.00,VWS V14.01,2013-11-24 02:30:00,
2013-11-23 20:31:00,7.2,-10.2,30.73,West,263,0.0,0.0,44,0.00,,SKC,0.00,VWS V14.01,2013-11-24 02:31:00,
2013-11-23 20:32:00,7.2,-10.2,30.73,West,263,0.0,0.0,44,0.00,,SKC,0.00,VWS V14.01,2013-11-24 02:32:00,
2013-11-23 20:34:00,7.2,-10.2,30.73,West,263,0.0,0.0,44,0.00,,SKC,0.00,VWS V14.01,2013-11-24 02:34:00,
2013-11-23 20:35:00,7.2,-10.2,30.73,West,263,0.0,0.0,44,0.00,,SKC,0.00,VWS V14.01,2013-11-24 02:35:00,
2013-11-23 20:36:00,7.2,-10.2,30.73,West,263,0.0,0.0,44,0.00,,SKC,0.00,VWS V14.01,2013-11-24 02:36:00,
2013-11-23 20:37:00,7.2,-10.2,30.73,West,263,0.0,0.0,44,0.00,,SKC,0.00,VWS V14.01,2013-11-24 02:37:00,
2013-11-23 20:38:00,7.2,-10.2,30.73,West,263,0.0,0.0,44,0.00,,SKC,0.00,VWS V14.01,2013-11-24 02:38:00,
2013-11-23 20:40:00,7.2,-10.2,30.73,West,264,0.0,4.8,44,0.00,,SKC,0.00,VWS V14.01,2013-11-24 02:40:00,
2013-11-23 20:41:00,7.0,-10.3,30.73,West,264,0.0,0.0,44,0.00,,SKC,0.00,VWS V14.01,2013-11-24 02:41:00,
2013-11-23 20:42:00,7.0,-10.3,30.73,West,264,0.0,0.0,44,0.00,,SKC,0.00,VWS V14.01,2013-11-24 02:42:00,
2013-11-23 20:43:00,6.8,-10.5,30.73,West,264,0.0,0.0,44,0.00,,SKC,0.00,VWS V14.01,2013-11-24 02:43:00,
2013-11-23 20:44:00,7.2,-10.2,30.73,West,263,0.0,0.0,44,0.00,,SKC,0.00,VWS V14.01,2013-11-24 02:44:00,
2013-11-23 20:46:00,7.0,-10.3,30.73,West,264,0.0,0.0,44,0.00,,SKC,0.00,VWS V14.01,2013-11-24 02:46:00,
2013-11-23 20:47:00,6.8,-10.5,30.73,West,267,0.0,0.0,44,0.00,,SKC,0.00,VWS V14.01,2013-11-24 02:47:00,
2013-11-23 20:50:00,7.2,-10.2,30.73,West,263,0.0,0.0,44,0.00,,SKC,0.00,VWS V14.01,2013-11-24 02:50:00,
2013-11-23 20:53:00,6.8,-10.5,30.73,West,267,0.0,0.0,44,0.00,,SKC,0.00,VWS V14.01,2013-11-24 02:53:00,
2013-11-23 20:54:00,6.8,-10.5,30.73,West,267,0.0,0.0,44,0.00,,SKC,0.00,VWS V14.01,2013-11-24 02:54:00,
2013-11-23 20:56:00,7.0,-10.3,30.73,West,264,0.0,0.0,44,0.00,,SKC,0.00,VWS V14.01,2013-11-24 02:56:00,
2013-11-23 20:58:00,6.8,-10.5,30.73,West,267,0.0,0.0,44,0.00,,SKC,0.00,VWS V14.01,2013-11-24 02:58:00,
2013-11-23 21:00:00,6.8,-10.5,30.73,West,267,0.0,0.0,44,0.00,,SKC,0.00,VWS V14.01,2013-11-24 03:00:00,
2013-11-23 21:01:00,6.8,-10.5,30.73,West,267,0.0,0.0,44,0.00,,SKC,0.00,VWS V14.01,2013-11-24 03:01:00,
2013-11-23 21:02:00,6.8,-10.5,30.73,West,267,0.0,4.0,44,0.00,,SKC,0.00,VWS V14.01,2013-11-24 03:02:00,
2013-11-23 21:04:00,6.8,-10.5,30.73,West,267,0.0,0.0,44,0.00,,SKC,0.00,VWS V14.01,2013-11-24 03:04:00,
2013-11-23 21:07:00,6.8,-10.5,30.73,West,267,0.0,0.0,44,0.00,,SKC,0.00,VWS V14.01,2013-11-24 03:07:00,
2013-11-23 21:08:00,6.8,-10.5,30.73,West,267,0.0,0.0,44,0.00,,SKC,0.00,VWS V14.01,2013-11-24 03:08:00,
2013-11-23 21:09:00,6.8,-10.5,30.73,West,267,0.0,0.0,44,0.00,,SKC,0.00,VWS V14.01,2013-11-24 03:09:00,
2013-11-23 21:10:00,6.8,-10.5,30.73,West,267,0.0,0.0,44,0.00,,SKC,0.00,VWS V14.01,2013-11-24 03:10:00,
2013-11-23 21:11:00,7.0,-10.3,30.73,West,267,0.0,0.0,44,0.00,,SKC,0.00,VWS V14.01,2013-11-24 03:11:00,
2013-11-23 21:12:00,7.0,-10.3,30.73,West,267,0.0,0.0,44,0.00,,SKC,0.00,VWS V14.01,2013-11-24 03:12:00,
2013-11-23 21:13:00,7.0,-10.3,30.73,West,267,0.0,0.0,44,0.00,,SKC,0.00,VWS V14.01,2013-11-24 03:13:00,
2013-11-23 21:14:00,7.0,-10.3,30.73,West,267,0.0,0.0,44,0.00,,SKC,0.00,VWS V14.01,2013-11-24 03:14:00,
2013-11-23 21:15:00,7.0,-10.3,30.73,West,273,0.0,4.8,44,0.00,,SKC,0.00,VWS V14.01,2013-11-24 03:15:00,
2013-11-23 21:19:00,7.0,-10.3,30.73,West,273,0.0,0.0,44,0.00,,SKC,0.00,VWS V14.01,2013-11-24 03:19:00,
2013-11-23 21:20:00,6.8,-10.5,30.73,West,267,0.0,0.0,44,0.00,,SKC,0.00,VWS V14.01,2013-11-24 03:20:00,
2013-11-23 21:23:00,7.0,-10.3,30.73,West,273,0.0,0.0,44,0.00,,SKC,0.00,VWS V14.01,2013-11-24 03:23:00,
2013-11-23 21:24:00,7.0,-10.3,30.73,West,273,0.0,0.0,44,0.00,,SKC,0.00,VWS V14.01,2013-11-24 03:24:00,
2013-11-23 21:26:00,7.0,-10.3,30.73,West,267,4.0,4.0,44,0.00,,SKC,0.00,VWS V14.01,2013-11-24 03:26:00,
2013-11-23 21:27:00,6.8,-10.5,30.73,West,273,0.0,0.0,44,0.00,,SKC,0.00,VWS V14.01,2013-11-24 03:27:00,
2013-11-23 21:28:00,6.8,-10.5,30.73,West,274,0.0,0.0,44,0.00,,SKC,0.00,VWS V14.01,2013-11-24 03:28:00,
2013-11-23 21:29:00,6.8,-10.5,30.73,West,273,0.0,0.0,44,0.00,,SKC,0.00,VWS V14.01,2013-11-24 03:29:00,
2013-11-23 21:30:00,6.8,-10.5,30.73,West,273,0.0,0.0,44,0.00,,SKC,0.00,VWS V14.01,2013-11-24 03:30:00,
2013-11-23 21:33:00,7.0,-10.3,30.73,West,273,0.0,0.0,44,0.00,,SKC,0.00,VWS V14.01,2013-11-24 03:33:00,
2013-11-23 21:34:00,6.6,-10.6,30.73,West,276,0.0,0.0,44,0.00,,SKC,0.00,VWS V14.01,2013-11-24 03:34:00,
2013-11-23 21:36:00,6.6,-10.6,30.73,West,276,0.0,0.0,44,0.00,,SKC,0.00,VWS V14.01,2013-11-24 03:36:00,
2013-11-23 21:37:00,6.4,-10.8,30.73,West,276,0.0,0.0,44,0.00,,SKC,0.00,VWS V14.01,2013-11-24 03:37:00,
2013-11-23 21:38:00,6.8,-10.5,30.73,West,273,0.0,0.0,44,0.00,,SKC,0.00,VWS V14.01,2013-11-24 03:38:00,
2013-11-23 21:39:00,6.6,-10.6,30.73,West,276,0.0,0.0,44,0.00,,SKC,0.00,VWS V14.01,2013-11-24 03:39:00,
2013-11-23 21:40:00,6.6,-10.6,30.73,West,276,0.0,0.0,44,0.00,,SKC,0.00,VWS V14.01,2013-11-24 03:40:00,
2013-11-23 21:41:00,6.6,-10.6,30.73,West,276,0.0,0.0,44,0.00,,SKC,0.00,VWS V14.01,2013-11-24 03:41:00,
2013-11-23 21:43:00,6.4,-10.8,30.73,West,276,0.0,0.0,44,0.00,,SKC,0.00,VWS V14.01,2013-11-24 03:43:00,
2013-11-23 21:44:00,6.8,-10.5,30.73,West,276,0.0,4.0,44,0.00,,SKC,0.00,VWS V14.01,2013-11-24 03:44:00,
2013-11-23 21:45:00,6.4,-10.8,30.73,West,276,0.0,0.0,44,0.00,,SKC,0.00,VWS V14.01,2013-11-24 03:45:00,
2013-11-23 21:46:00,6.6,-10.6,30.73,West,276,0.0,0.0,44,0.00,,SKC,0.00,VWS V14.01,2013-11-24 03:46:00,
2013-11-23 21:48:00,6.4,-10.8,30.73,West,276,0.0,0.0,44,0.00,,SKC,0.00,VWS V14.01,2013-11-24 03:48:00,
2013-11-23 21:49:00,6.4,-10.8,30.73,West,275,4.0,4.0,44,0.00,,SKC,0.00,VWS V14.01,2013-11-24 03:49:00,
2013-11-23 21:50:00,6.6,-10.6,30.73,SW,217,5.6,5.6,44,0.00,,SKC,0.00,VWS V14.01,2013-11-24 03:50:00,
2013-11-23 21:51:00,6.8,-10.5,30.73,SW,217,4.8,6.4,44,0.00,,SKC,0.00,VWS V14.01,2013-11-24 03:51:00,
2013-11-23 21:52:00,6.8,-10.5,30.73,SW,216,0.0,4.8,44,0.00,,SKC,0.00,VWS V14.01,2013-11-24 03:52:00,
2013-11-23 21:53:00,6.6,-10.6,30.73,SW,216,0.0,0.0,44,0.00,,SKC,0.00,VWS V14.01,2013-11-24 03:53:00,
2013-11-23 21:54:00,6.6,-10.6,30.73,West,276,0.0,0.0,44,0.00,,SKC,0.00,VWS V14.01,2013-11-24 03:54:00,
2013-11-23 21:55:00,6.4,-10.8,30.73,SW,221,0.0,0.0,44,0.00,,SKC,0.00,VWS V14.01,2013-11-24 03:55:00,
2013-11-23 21:56:00,6.4,-10.8,30.73,SW,221,0.0,0.0,44,0.00,,SKC,0.00,VWS V14.01,2013-11-24 03:56:00,
2013-11-23 21:59:00,6.4,-10.8,30.73,West,276,0.0,0.0,44,0.00,,SKC,0.00,VWS V14.01,2013-11-24 03:59:00,
2013-11-23 22:00:00,6.4,-10.8,30.73,SW,221,0.0,0.0,44,0.00,,SKC,0.00,VWS V14.01,2013-11-24 04:00:00,
2013-11-23 22:02:00,6.3,-11.0,30.73,SW,221,0.0,0.0,44,0.00,,SKC,0.00,VWS V14.01,2013-11-24 04:02:00,
2013-11-23 22:03:00,6.3,-11.0,30.73,SW,221,0.0,0.0,44,0.00,,SKC,0.00,VWS V14.01,2013-11-24 04:03:00,
2013-11-23 22:05:00,6.3,-11.0,30.73,SW,221,0.0,0.0,44,0.00,,SKC,0.00,VWS V14.01,2013-11-24 04:05:00,
2013-11-23 22:07:00,6.4,-10.8,30.73,SW,221,0.0,0.0,44,0.00,,SKC,0.00,VWS V14.01,2013-11-24 04:07:00,
2013-11-23 22:08:00,6.1,-11.1,30.73,SW,221,0.0,0.0,44,0.00,,SKC,0.00,VWS V14.01,2013-11-24 04:08:00,
2013-11-23 22:09:00,6.1,-11.1,30.73,SW,221,0.0,0.0,44,0.00,,SKC,0.00,VWS V14.01,2013-11-24 04:09:00,
2013-11-23 22:10:00,6.1,-11.1,30.73,SW,220,0.0,0.0,44,0.00,,SKC,0.00,VWS V14.01,2013-11-24 04:10:00,
2013-11-23 22:11:00,6.1,-11.1,30.73,SW,220,0.0,0.0,44,0.00,,SKC,0.00,VWS V14.01,2013-11-24 04:11:00,
2013-11-23 22:13:00,6.4,-10.8,30.73,SW,221,0.0,0.0,44,0.00,,SKC,0.00,VWS V14.01,2013-11-24 04:13:00,
2013-11-23 22:14:00,5.9,-11.3,30.73,SW,221,0.0,0.0,44,0.00,,SKC,0.00,VWS V14.01,2013-11-24 04:14:00,
2013-11-23 22:15:00,5.9,-11.3,30.73,SW,221,0.0,0.0,44,0.00,,SKC,0.00,VWS V14.01,2013-11-24 04:15:00,
2013-11-23 22:16:00,5.7,-11.5,30.73,SW,221,0.0,0.0,44,0.00,,SKC,0.00,VWS V14.01,2013-11-24 04:16:00,
2013-11-23 22:17:00,5.7,-11.5,30.73,SW,221,0.0,0.0,44,0.00,,SKC,0.00,VWS V14.01,2013-11-24 04:17:00,
2013-11-23 22:18:00,5.5,-11.6,30.73,SW,221,0.0,0.0,44,0.00,,SKC,0.00,VWS V14.01,2013-11-24 04:18:00,
2013-11-23 22:19:00,6.1,-11.1,30.73,SW,220,0.0,0.0,44,0.00,,SKC,0.00,VWS V14.01,2013-11-24 04:19:00,
2013-11-23 22:23:00,5.5,-11.6,30.73,SW,220,0.0,0.0,44,0.00,,SKC,0.00,VWS V14.01,2013-11-24 04:23:00,
2013-11-23 22:24:00,5.5,-11.6,30.73,SW,220,0.0,0.0,44,0.00,,SKC,0.00,VWS V14.01,2013-11-24 04:24:00,
2013-11-23 22:25:00,6.1,-11.1,30.73,SW,220,0.0,0.0,44,0.00,,SKC,0.00,VWS V14.01,2013-11-24 04:25:00,
2013-11-23 22:29:00,5.5,-11.6,30.73,SW,221,0.0,0.0,44,0.00,,SKC,0.00,VWS V14.01,2013-11-24 04:29:00,
2013-11-23 22:30:00,5.5,-11.6,30.73,SW,220,0.0,0.0,44,0.00,,SKC,0.00,VWS V14.01,2013-11-24 04:30:00,
2013-11-23 22:31:00,5.5,-11.6,30.73,SW,221,0.0,0.0,44,0.00,,SKC,0.00,VWS V14.01,2013-11-24 04:31:00,
2013-11-23 22:32:00,5.5,-11.6,30.73,SW,220,0.0,0.0,44,0.00,,SKC,0.00,VWS V14.01,2013-11-24 04:32:00,
2013-11-23 22:34:00,5.5,-11.6,30.73,SW,220,0.0,0.0,44,0.00,,SKC,0.00,VWS V14.01,2013-11-24 04:34:00,
2013-11-23 22:36:00,5.5,-11.6,30.73,SW,220,0.0,0.0,44,0.00,,SKC,0.00,VWS V14.01,2013-11-24 04:36:00,
2013-11-23 22:37:00,5.5,-11.6,30.73,SW,221,0.0,0.0,44,0.00,,SKC,0.00,VWS V14.01,2013-11-24 04:37:00,
2013-11-23 22:38:00,5.5,-11.6,30.73,SW,221,0.0,0.0,44,0.00,,SKC,0.00,VWS V14.01,2013-11-24 04:38:00,
2013-11-23 22:39:00,5.5,-11.6,30.73,SW,221,0.0,0.0,44,0.00,,SKC,0.00,VWS V14.01,2013-11-24 04:39:00,
2013-11-23 22:42:00,5.5,-11.6,30.73,SW,221,0.0,0.0,44,0.00,,SKC,0.00,VWS V14.01,2013-11-24 04:42:00,
2013-11-23 22:44:00,5.5,-11.6,30.73,SW,220,0.0,0.0,44,0.00,,SKC,0.00,VWS V14.01,2013-11-24 04:44:00,
2013-11-23 22:46:00,5.5,-11.6,30.73,SW,221,0.0,0.0,44,0.00,,SKC,0.00,VWS V14.01,2013-11-24 04:46:00,
2013-11-23 22:48:00,5.5,-11.6,30.73,SW,221,0.0,0.0,44,0.00,,SKC,0.00,VWS V14.01,2013-11-24 04:48:00,
2013-11-23 22:49:00,5.4,-11.8,30.73,SW,221,0.0,0.0,44,0.00,,SKC,0.00,VWS V14.01,2013-11-24 04:49:00,
2013-11-23 22:50:00,5.4,-11.8,30.73,SW,220,0.0,0.0,44,0.00,,SKC,0.00,VWS V14.01,2013-11-24 04:50:00,
2013-11-23 22:51:00,5.4,-11.8,30.73,SW,220,0.0,0.0,44,0.00,,SKC,0.00,VWS V14.01,2013-11-24 04:51:00,
2013-11-23 22:52:00,5.4,-11.8,30.73,SW,220,0.0,0.0,44,0.00,,SKC,0.00,VWS V14.01,2013-11-24 04:52:00,
2013-11-23 22:53:00,5.5,-11.6,30.73,SW,221,0.0,0.0,44,0.00,,SKC,0.00,VWS V14.01,2013-11-24 04:53:00,
2013-11-23 22:54:00,5.4,-11.8,30.73,SW,221,0.0,0.0,44,0.00,,SKC,0.00,VWS V14.01,2013-11-24 04:54:00,
2013-11-23 22:55:00,5.4,-11.8,30.73,SW,220,0.0,0.0,44,0.00,,SKC,0.00,VWS V14.01,2013-11-24 04:55:00,
2013-11-23 22:56:00,5.4,-11.8,30.73,SW,220,4.8,4.8,44,0.00,,SKC,0.00,VWS V14.01,2013-11-24 04:56:00,
2013-11-23 22:57:00,5.4,-11.8,30.73,SW,220,4.8,4.8,44,0.00,,SKC,0.00,VWS V14.01,2013-11-24 04:57:00,
2013-11-23 22:58:00,5.5,-11.6,30.73,SW,220,0.0,0.0,44,0.00,,SKC,0.00,VWS V14.01,2013-11-24 04:58:00,
2013-11-23 22:59:00,5.4,-11.8,30.73,SW,221,0.0,5.6,44,0.00,,SKC,0.00,VWS V14.01,2013-11-24 04:59:00,
2013-11-23 23:00:00,5.5,-11.6,30.73,SW,221,4.0,4.8,44,0.00,,SKC,0.00,VWS V14.01,2013-11-24 05:00:00,
2013-11-23 23:01:00,5.4,-11.8,30.73,SW,220,0.0,4.0,44,0.00,,SKC,0.00,VWS V14.01,2013-11-24 05:01:00,
2013-11-23 23:02:00,5.5,-11.6,30.73,SW,220,0.0,0.0,44,0.00,,SKC,0.00,VWS V14.01,2013-11-24 05:02:00,
2013-11-23 23:03:00,5.5,-11.6,30.73,SW,220,4.8,4.8,44,0.00,,SKC,0.00,VWS V14.01,2013-11-24 05:03:00,
2013-11-23 23:04:00,5.5,-11.6,30.73,SW,220,4.0,4.8,44,0.00,,SKC,0.00,VWS V14.01,2013-11-24 05:04:00,
2013-11-23 23:05:00,5.5,-11.6,30.73,SW,220,0.0,5.6,44,0.00,,SKC,0.00,VWS V14.01,2013-11-24 05:05:00,
2013-11-23 23:06:00,5.5,-11.6,30.73,SW,220,0.0,0.0,44,0.00,,SKC,0.00,VWS V14.01,2013-11-24 05:06:00,
2013-11-23 23:07:00,5.5,-11.6,30.73,SW,220,0.0,0.0,44,0.00,,SKC,0.00,VWS V14.01,2013-11-24 05:07:00,
2013-11-23 23:08:00,5.5,-11.6,30.73,SW,220,0.0,0.0,44,0.00,,SKC,0.00,VWS V14.01,2013-11-24 05:08:00,
2013-11-23 23:09:00,5.5,-11.6,30.73,SW,220,0.0,4.0,44,0.00,,SKC,0.00,VWS V14.01,2013-11-24 05:09:00,
2013-11-23 23:10:00,5.5,-11.6,30.73,SW,220,0.0,0.0,44,0.00,,SKC,0.00,VWS V14.01,2013-11-24 05:10:00,
2013-11-23 23:11:00,5.4,-11.8,30.73,SW,220,0.0,0.0,44,0.00,,SKC,0.00,VWS V14.01,2013-11-24 05:11:00,
2013-11-23 23:12:00,5.4,-11.8,30.73,SW,220,0.0,0.0,44,0.00,,SKC,0.00,VWS V14.01,2013-11-24 05:12:00,
2013-11-23 23:13:00,5.4,-11.8,30.73,SW,220,0.0,0.0,44,0.00,,SKC,0.00,VWS V14.01,2013-11-24 05:13:00,
2013-11-23 23:14:00,5.4,-11.8,30.73,SW,220,0.0,4.0,44,0.00,,SKC,0.00,VWS V14.01,2013-11-24 05:14:00,
2013-11-23 23:15:00,5.4,-11.8,30.73,SW,220,0.0,0.0,44,0.00,,SKC,0.00,VWS V14.01,2013-11-24 05:15:00,
2013-11-23 23:16:00,5.4,-11.8,30.73,SW,220,0.0,0.0,44,0.00,,SKC,0.00,VWS V14.01,2013-11-24 05:16:00,
2013-11-23 23:17:00,5.4,-11.8,30.73,SW,220,0.0,0.0,44,0.00,,SKC,0.00,VWS V14.01,2013-11-24 05:17:00,
2013-11-23 23:18:00,5.2,-12.0,30.73,SW,220,0.0,4.0,44,0.00,,SKC,0.00,VWS V14.01,2013-11-24 05:18:00,
2013-11-23 23:19:00,5.2,-12.0,30.73,SW,220,0.0,0.0,44,0.00,,SKC,0.00,VWS V14.01,2013-11-24 05:19:00,
2013-11-23 23:20:00,5.4,-11.8,30.73,SW,220,0.0,0.0,44,0.00,,SKC,0.00,VWS V14.01,2013-11-24 05:20:00,
2013-11-23 23:21:00,5.4,-11.8,30.73,SW,220,0.0,0.0,44,0.00,,SKC,0.00,VWS V14.01,2013-11-24 05:21:00,
2013-11-23 23:22:00,5.4,-11.8,30.73,SW,220,0.0,0.0,44,0.00,,SKC,0.00,VWS V14.01,2013-11-24 05:22:00,
2013-11-23 23:23:00,5.2,-12.0,30.73,SW,220,0.0,0.0,44,0.00,,SKC,0.00,VWS V14.01,2013-11-24 05:23:00,
2013-11-23 23:24:00,5.2,-12.0,30.73,SW,220,0.0,0.0,44,0.00,,SKC,0.00,VWS V14.01,2013-11-24 05:24:00,
2013-11-23 23:25:00,5.2,-12.0,30.73,SW,220,0.0,0.0,44,0.00,,SKC,0.00,VWS V14.01,2013-11-24 05:25:00,
2013-11-23 23:26:00,5.2,-12.0,30.73,SW,220,0.0,0.0,44,0.00,,SKC,0.00,VWS V14.01,2013-11-24 05:26:00,
2013-11-23 23:27:00,5.2,-12.0,30.73,SW,220,0.0,0.0,44,0.00,,SKC,0.00,VWS V14.01,2013-11-24 05:27:00,
2013-11-23 23:28:00,5.2,-12.0,30.73,SW,220,0.0,0.0,44,0.00,,SKC,0.00,VWS V14.01,2013-11-24 05:28:00,
2013-11-23 23:29:00,5.2,-12.0,30.73,SW,220,0.0,0.0,44,0.00,,SKC,0.00,VWS V14.01,2013-11-24 05:29:00,
2013-11-23 23:30:00,5.2,-12.0,30.73,SW,220,0.0,0.0,44,0.00,,SKC,0.00,VWS V14.01,2013-11-24 05:30:00,
2013-11-23 23:31:00,5.2,-12.0,30.73,SW,220,0.0,0.0,44,0.00,,SKC,0.00,VWS V14.01,2013-11-24 05:31:00,
2013-11-23 23:32:00,5.2,-12.0,30.73,SW,220,0.0,0.0,44,0.00,,SKC,0.00,VWS V14.01,2013-11-24 05:32:00,
2013-11-23 23:33:00,5.2,-12.0,30.73,SW,220,0.0,0.0,44,0.00,,SKC,0.00,VWS V14.01,2013-11-24 05:33:00,
2013-11-23 23:34:00,5.2,-12.0,30.73,SW,220,0.0,0.0,44,0.00,,SKC,0.00,VWS V14.01,2013-11-24 05:34:00,
2013-11-23 23:35:00,5.2,-12.0,30.73,SW,220,0.0,0.0,44,0.00,,SKC,0.00,VWS V14.01,2013-11-24 05:35:00,
2013-11-23 23:36:00,5.2,-12.0,30.73,SW,220,0.0,0.0,44,0.00,,SKC,0.00,VWS V14.01,2013-11-24 05:36:00,
2013-11-23 23:37:00,5.2,-12.0,30.73,SW,220,0.0,0.0,44,0.00,,SKC,0.00,VWS V14.01,2013-11-24 05:37:00,
2013-11-23 23:38:00,5.2,-12.0,30.73,SW,220,0.0,0.0,44,0.00,,SKC,0.00,VWS V14.01,2013-11-24 05:38:00,
2013-11-23 23:39:00,5.4,-11.8,30.73,SW,220,0.0,0.0,44,0.00,,SKC,0.00,VWS V14.01,2013-11-24 05:39:00,
2013-11-23 23:40:00,5.2,-12.0,30.73,SW,220,0.0,0.0,44,0.00,,SKC,0.00,VWS V14.01,2013-11-24 05:40:00,
2013-11-23 23:41:00,5.4,-11.8,30.73,SW,220,0.0,0.0,44,0.00,,SKC,0.00,VWS V14.01,2013-11-24 05:41:00,
2013-11-23 23:42:00,5.2,-12.0,30.73,SW,220,0.0,0.0,44,0.00,,SKC,0.00,VWS V14.01,2013-11-24 05:42:00,
2013-11-23 23:43:00,5.0,-12.1,30.73,SW,220,0.0,0.0,44,0.00,,SKC,0.00,VWS V14.01,2013-11-24 05:43:00,
2013-11-23 23:44:00,5.4,-11.8,30.73,SW,220,0.0,0.0,44,0.00,,SKC,0.00,VWS V14.01,2013-11-24 05:44:00,
2013-11-23 23:45:00,5.2,-12.0,30.73,SW,220,0.0,0.0,44,0.00,,SKC,0.00,VWS V14.01,2013-11-24 05:45:00,
2013-11-23 23:46:00,5.4,-11.8,30.73,SW,220,0.0,0.0,44,0.00,,SKC,0.00,VWS V14.01,2013-11-24 05:46:00,
2013-11-23 23:47:00,5.4,-11.8,30.73,SW,220,0.0,0.0,44,0.00,,SKC,0.00,VWS V14.01,2013-11-24 05:47:00,
2013-11-23 23:48:00,5.4,-11.8,30.73,SW,220,0.0,0.0,44,0.00,,SKC,0.00,VWS V14.01,2013-11-24 05:48:00,
2013-11-23 23:49:00,5.4,-11.8,30.73,SW,220,0.0,0.0,44,0.00,,SKC,0.00,VWS V14.01,2013-11-24 05:49:00,
2013-11-23 23:50:00,5.2,-12.0,30.73,SW,220,0.0,0.0,44,0.00,,SKC,0.00,VWS V14.01,2013-11-24 05:50:00,
2013-11-23 23:51:00,5.2,-12.0,30.73,SW,220,0.0,0.0,44,0.00,,SKC,0.00,VWS V14.01,2013-11-24 05:51:00,
2013-11-23 23:52:00,5.2,-12.0,30.73,SW,220,0.0,0.0,44,0.00,,SKC,0.00,VWS V14.01,2013-11-24 05:52:00,
2013-11-23 23:53:00,5.4,-11.8,30.73,SW,220,0.0,0.0,44,0.00,,SKC,0.00,VWS V14.01,2013-11-24 05:53:00,
2013-11-23 23:54:00,5.2,-12.0,30.73,SW,220,0.0,0.0,44,0.00,,SKC,0.00,VWS V14.01,2013-11-24 05:54:00,
2013-11-23 23:55:00,5.2,-12.0,30.73,SW,220,0.0,0.0,44,0.00,,SKC,0.00,VWS V14.01,2013-11-24 05:55:00,
2013-11-23 23:56:00,5.2,-12.0,30.73,SW,220,0.0,0.0,44,0.00,,SKC,0.00,VWS V14.01,2013-11-24 05:56:00,
2013-11-23 23:57:00,5.0,-12.1,30.73,SW,220,0.0,0.0,44,0.00,,SKC,0.00,VWS V14.01,2013-11-24 05:57:00,
2013-11-23 23:58:00,5.0,-12.1,30.73,SW,220,0.0,0.0,44,0.00,,SKC,0.00,VWS V14.01,2013-11-24 05:58:00,
2013-11-23 23:59:00,5.0,-12.1,30.73,SW,220,0.0,0.0,44,0.00,,SKC,0.00,VWS V14.01,2013-11-24 05:59:00,